sensor_id;sensor_type;location;lat;lon;timestamp;P1;durP1;ratioP1;P2;durP2;ratioP2
6898;SDS011;3488;42.616;23.350;2023-11-21T00:02:16;3.88;;;3.47;;
6898;SDS011;3488;42.616;23.350;2023-11-21T00:04:43;7.47;;;3.30;;
6898;SDS011;3488;42.616;23.350;2023-11-21T00:07:10;4.90;;;3.13;;
6898;SDS011;3488;42.616;23.350;2023-11-21T00:09:37;3.28;;;2.97;;
6898;SDS011;3488;42.616;23.350;2023-11-21T00:12:04;4.53;;;3.17;;
6898;SDS011;3488;42.616;23.350;2023-11-21T00:14:35;5.88;;;3.42;;
6898;SDS011;3488;42.616;23.350;2023-11-21T00:17:03;3.90;;;2.90;;
6898;SDS011;3488;42.616;23.350;2023-11-21T00:19:32;5.30;;;3.97;;
6898;SDS011;3488;42.616;23.350;2023-11-21T00:22:00;5.68;;;3.65;;
6898;SDS011;3488;42.616;23.350;2023-11-21T00:24:27;2.70;;;2.50;;
6898;SDS011;3488;42.616;23.350;2023-11-21T00:26:54;2.35;;;2.08;;
6898;SDS011;3488;42.616;23.350;2023-11-21T00:29:21;3.75;;;3.42;;
6898;SDS011;3488;42.616;23.350;2023-11-21T00:31:47;5.40;;;4.10;;
6898;SDS011;3488;42.616;23.350;2023-11-21T00:34:15;5.15;;;3.20;;
6898;SDS011;3488;42.616;23.350;2023-11-21T00:36:43;3.13;;;2.92;;
6898;SDS011;3488;42.616;23.350;2023-11-21T00:39:10;4.63;;;3.80;;
6898;SDS011;3488;42.616;23.350;2023-11-21T00:41:38;2.58;;;2.10;;
6898;SDS011;3488;42.616;23.350;2023-11-21T00:44:05;2.50;;;2.30;;
6898;SDS011;3488;42.616;23.350;2023-11-21T00:46:32;2.22;;;1.65;;
6898;SDS011;3488;42.616;23.350;2023-11-21T00:49:00;12.27;;;5.15;;
6898;SDS011;3488;42.616;23.350;2023-11-21T00:51:27;3.88;;;3.03;;
6898;SDS011;3488;42.616;23.350;2023-11-21T00:53:56;6.57;;;3.63;;
6898;SDS011;3488;42.616;23.350;2023-11-21T00:56:23;3.15;;;2.78;;
6898;SDS011;3488;42.616;23.350;2023-11-21T00:58:50;3.17;;;2.47;;
6898;SDS011;3488;42.616;23.350;2023-11-21T01:01:17;4.28;;;2.47;;
6898;SDS011;3488;42.616;23.350;2023-11-21T01:03:45;3.05;;;2.53;;
6898;SDS011;3488;42.616;23.350;2023-11-21T01:06:12;3.60;;;2.40;;
6898;SDS011;3488;42.616;23.350;2023-11-21T01:08:40;3.60;;;2.85;;
6898;SDS011;3488;42.616;23.350;2023-11-21T01:11:08;5.97;;;3.20;;
6898;SDS011;3488;42.616;23.350;2023-11-21T01:13:37;4.25;;;3.13;;
6898;SDS011;3488;42.616;23.350;2023-11-21T01:16:05;4.47;;;3.60;;
6898;SDS011;3488;42.616;23.350;2023-11-21T01:18:32;10.00;;;4.78;;
6898;SDS011;3488;42.616;23.350;2023-11-21T01:21:00;4.40;;;3.38;;
6898;SDS011;3488;42.616;23.350;2023-11-21T01:23:27;6.53;;;4.10;;
6898;SDS011;3488;42.616;23.350;2023-11-21T01:25:55;6.63;;;4.63;;
6898;SDS011;3488;42.616;23.350;2023-11-21T01:28:24;6.13;;;5.28;;
6898;SDS011;3488;42.616;23.350;2023-11-21T01:30:51;8.95;;;5.22;;
6898;SDS011;3488;42.616;23.350;2023-11-21T01:33:21;6.10;;;5.50;;
6898;SDS011;3488;42.616;23.350;2023-11-21T01:35:50;7.78;;;5.65;;
6898;SDS011;3488;42.616;23.350;2023-11-21T01:38:20;6.47;;;5.60;;
6898;SDS011;3488;42.616;23.350;2023-11-21T01:40:47;11.30;;;6.43;;
6898;SDS011;3488;42.616;23.350;2023-11-21T01:43:14;8.25;;;5.43;;
6898;SDS011;3488;42.616;23.350;2023-11-21T01:45:43;7.20;;;5.88;;
6898;SDS011;3488;42.616;23.350;2023-11-21T01:48:11;6.38;;;4.28;;
6898;SDS011;3488;42.616;23.350;2023-11-21T01:50:41;7.90;;;6.20;;
6898;SDS011;3488;42.616;23.350;2023-11-21T01:53:10;7.05;;;4.78;;
6898;SDS011;3488;42.616;23.350;2023-11-21T01:55:39;5.13;;;4.47;;
6898;SDS011;3488;42.616;23.350;2023-11-21T01:58:07;4.10;;;3.50;;
6898;SDS011;3488;42.616;23.350;2023-11-21T02:00:35;6.45;;;4.15;;
6898;SDS011;3488;42.616;23.350;2023-11-21T02:03:05;5.55;;;3.88;;
6898;SDS011;3488;42.616;23.350;2023-11-21T02:05:33;4.18;;;3.22;;
6898;SDS011;3488;42.616;23.350;2023-11-21T02:08:00;5.35;;;4.85;;
6898;SDS011;3488;42.616;23.350;2023-11-21T02:10:27;4.93;;;4.30;;
6898;SDS011;3488;42.616;23.350;2023-11-21T02:12:56;5.53;;;4.18;;
6898;SDS011;3488;42.616;23.350;2023-11-21T02:15:23;7.10;;;5.40;;
6898;SDS011;3488;42.616;23.350;2023-11-21T02:17:53;7.22;;;4.90;;
6898;SDS011;3488;42.616;23.350;2023-11-21T02:20:25;8.48;;;4.20;;
6898;SDS011;3488;42.616;23.350;2023-11-21T02:22:55;8.15;;;5.68;;
6898;SDS011;3488;42.616;23.350;2023-11-21T02:25:24;7.13;;;5.03;;
6898;SDS011;3488;42.616;23.350;2023-11-21T02:27:52;5.53;;;4.80;;
6898;SDS011;3488;42.616;23.350;2023-11-21T02:30:20;8.50;;;6.22;;
6898;SDS011;3488;42.616;23.350;2023-11-21T02:32:47;10.13;;;6.50;;
6898;SDS011;3488;42.616;23.350;2023-11-21T02:35:14;9.77;;;6.38;;
6898;SDS011;3488;42.616;23.350;2023-11-21T02:37:42;8.80;;;6.63;;
6898;SDS011;3488;42.616;23.350;2023-11-21T02:40:11;9.45;;;6.60;;
6898;SDS011;3488;42.616;23.350;2023-11-21T02:42:42;8.88;;;6.32;;
6898;SDS011;3488;42.616;23.350;2023-11-21T02:45:09;6.00;;;5.40;;
6898;SDS011;3488;42.616;23.350;2023-11-21T02:47:38;8.98;;;6.30;;
6898;SDS011;3488;42.616;23.350;2023-11-21T02:50:06;9.43;;;5.55;;
6898;SDS011;3488;42.616;23.350;2023-11-21T02:52:34;5.30;;;4.20;;
6898;SDS011;3488;42.616;23.350;2023-11-21T02:55:01;9.18;;;4.05;;
6898;SDS011;3488;42.616;23.350;2023-11-21T02:57:29;4.03;;;3.63;;
6898;SDS011;3488;42.616;23.350;2023-11-21T02:59:56;4.97;;;3.47;;
6898;SDS011;3488;42.616;23.350;2023-11-21T03:02:23;2.67;;;2.47;;
6898;SDS011;3488;42.616;23.350;2023-11-21T03:04:50;1.88;;;1.77;;
6898;SDS011;3488;42.616;23.350;2023-11-21T03:07:17;2.15;;;2.00;;
6898;SDS011;3488;42.616;23.350;2023-11-21T03:09:44;2.92;;;2.65;;
6898;SDS011;3488;42.616;23.350;2023-11-21T03:12:11;2.55;;;2.38;;
6898;SDS011;3488;42.616;23.350;2023-11-21T03:14:39;2.13;;;2.03;;
6898;SDS011;3488;42.616;23.350;2023-11-21T03:17:06;2.78;;;1.98;;
6898;SDS011;3488;42.616;23.350;2023-11-21T03:19:33;6.55;;;3.78;;
6898;SDS011;3488;42.616;23.350;2023-11-21T03:22:01;7.63;;;4.00;;
6898;SDS011;3488;42.616;23.350;2023-11-21T03:24:29;2.83;;;2.63;;
6898;SDS011;3488;42.616;23.350;2023-11-21T03:26:56;3.00;;;2.70;;
6898;SDS011;3488;42.616;23.350;2023-11-21T03:29:23;5.20;;;4.80;;
6898;SDS011;3488;42.616;23.350;2023-11-21T03:31:52;7.28;;;5.32;;
6898;SDS011;3488;42.616;23.350;2023-11-21T03:34:23;9.55;;;6.18;;
6898;SDS011;3488;42.616;23.350;2023-11-21T03:36:51;6.13;;;5.20;;
6898;SDS011;3488;42.616;23.350;2023-11-21T03:39:19;6.70;;;5.05;;
6898;SDS011;3488;42.616;23.350;2023-11-21T03:41:47;6.88;;;6.15;;
6898;SDS011;3488;42.616;23.350;2023-11-21T03:44:14;8.40;;;5.28;;
6898;SDS011;3488;42.616;23.350;2023-11-21T03:46:41;3.22;;;2.95;;
6898;SDS011;3488;42.616;23.350;2023-11-21T03:49:09;2.28;;;2.15;;
6898;SDS011;3488;42.616;23.350;2023-11-21T03:51:36;2.10;;;1.83;;
6898;SDS011;3488;42.616;23.350;2023-11-21T03:54:04;4.50;;;2.60;;
6898;SDS011;3488;42.616;23.350;2023-11-21T03:56:31;3.47;;;1.90;;
6898;SDS011;3488;42.616;23.350;2023-11-21T03:58:58;3.08;;;2.10;;
6898;SDS011;3488;42.616;23.350;2023-11-21T04:01:25;2.22;;;2.13;;
6898;SDS011;3488;42.616;23.350;2023-11-21T04:03:52;5.50;;;2.47;;
6898;SDS011;3488;42.616;23.350;2023-11-21T04:06:20;2.20;;;2.10;;
6898;SDS011;3488;42.616;23.350;2023-11-21T04:08:47;3.15;;;2.38;;
6898;SDS011;3488;42.616;23.350;2023-11-21T04:11:14;2.40;;;2.20;;
6898;SDS011;3488;42.616;23.350;2023-11-21T04:13:40;7.20;;;2.70;;
6898;SDS011;3488;42.616;23.350;2023-11-21T04:16:09;2.90;;;2.70;;
6898;SDS011;3488;42.616;23.350;2023-11-21T04:18:36;4.60;;;3.03;;
6898;SDS011;3488;42.616;23.350;2023-11-21T04:21:04;4.93;;;3.45;;
6898;SDS011;3488;42.616;23.350;2023-11-21T04:23:33;4.90;;;3.53;;
6898;SDS011;3488;42.616;23.350;2023-11-21T04:26:00;4.97;;;3.67;;
6898;SDS011;3488;42.616;23.350;2023-11-21T04:28:28;5.90;;;3.22;;
6898;SDS011;3488;42.616;23.350;2023-11-21T04:30:55;2.58;;;2.45;;
6898;SDS011;3488;42.616;23.350;2023-11-21T04:33:22;4.45;;;3.75;;
6898;SDS011;3488;42.616;23.350;2023-11-21T04:35:50;6.78;;;4.45;;
6898;SDS011;3488;42.616;23.350;2023-11-21T04:38:17;2.45;;;2.35;;
6898;SDS011;3488;42.616;23.350;2023-11-21T04:40:46;1.92;;;1.42;;
6898;SDS011;3488;42.616;23.350;2023-11-21T04:43:13;1.58;;;1.52;;
6898;SDS011;3488;42.616;23.350;2023-11-21T04:45:40;2.58;;;1.40;;
6898;SDS011;3488;42.616;23.350;2023-11-21T04:48:07;0.85;;;0.80;;
6898;SDS011;3488;42.616;23.350;2023-11-21T04:50:35;1.48;;;1.33;;
6898;SDS011;3488;42.616;23.350;2023-11-21T04:53:02;4.97;;;1.67;;
6898;SDS011;3488;42.616;23.350;2023-11-21T04:55:30;1.33;;;1.20;;
6898;SDS011;3488;42.616;23.350;2023-11-21T04:57:59;1.55;;;1.45;;
6898;SDS011;3488;42.616;23.350;2023-11-21T05:00:25;3.15;;;2.20;;
6898;SDS011;3488;42.616;23.350;2023-11-21T05:02:53;4.15;;;3.17;;
6898;SDS011;3488;42.616;23.350;2023-11-21T05:05:19;2.70;;;2.50;;
6898;SDS011;3488;42.616;23.350;2023-11-21T05:07:47;2.90;;;2.67;;
6898;SDS011;3488;42.616;23.350;2023-11-21T05:10:14;3.67;;;3.38;;
6898;SDS011;3488;42.616;23.350;2023-11-21T05:12:41;4.38;;;2.97;;
6898;SDS011;3488;42.616;23.350;2023-11-21T05:15:12;4.25;;;3.17;;
6898;SDS011;3488;42.616;23.350;2023-11-21T05:17:41;3.33;;;3.10;;
6898;SDS011;3488;42.616;23.350;2023-11-21T05:20:08;1.70;;;1.60;;
6898;SDS011;3488;42.616;23.350;2023-11-21T05:22:37;2.60;;;1.88;;
6898;SDS011;3488;42.616;23.350;2023-11-21T05:25:05;2.15;;;1.95;;
6898;SDS011;3488;42.616;23.350;2023-11-21T05:27:33;2.83;;;1.55;;
6898;SDS011;3488;42.616;23.350;2023-11-21T05:30:00;1.65;;;1.55;;
6898;SDS011;3488;42.616;23.350;2023-11-21T05:32:31;2.97;;;1.58;;
6898;SDS011;3488;42.616;23.350;2023-11-21T05:34:59;1.67;;;1.58;;
6898;SDS011;3488;42.616;23.350;2023-11-21T05:37:26;2.40;;;2.20;;
6898;SDS011;3488;42.616;23.350;2023-11-21T05:39:54;2.60;;;2.50;;
6898;SDS011;3488;42.616;23.350;2023-11-21T05:42:22;2.95;;;2.38;;
6898;SDS011;3488;42.616;23.350;2023-11-21T05:44:49;1.38;;;1.27;;
6898;SDS011;3488;42.616;23.350;2023-11-21T05:47:16;3.65;;;1.90;;
6898;SDS011;3488;42.616;23.350;2023-11-21T05:49:44;1.92;;;1.83;;
6898;SDS011;3488;42.616;23.350;2023-11-21T05:52:15;1.90;;;1.80;;
6898;SDS011;3488;42.616;23.350;2023-11-21T05:54:42;1.42;;;1.33;;
6898;SDS011;3488;42.616;23.350;2023-11-21T05:57:09;1.63;;;1.52;;
6898;SDS011;3488;42.616;23.350;2023-11-21T05:59:37;2.95;;;1.38;;
6898;SDS011;3488;42.616;23.350;2023-11-21T06:02:04;2.45;;;1.70;;
6898;SDS011;3488;42.616;23.350;2023-11-21T06:04:31;2.75;;;2.30;;
6898;SDS011;3488;42.616;23.350;2023-11-21T06:07:00;2.03;;;1.83;;
6898;SDS011;3488;42.616;23.350;2023-11-21T06:09:27;2.97;;;2.25;;
6898;SDS011;3488;42.616;23.350;2023-11-21T06:11:54;3.60;;;2.88;;
6898;SDS011;3488;42.616;23.350;2023-11-21T06:14:21;5.05;;;4.50;;
6898;SDS011;3488;42.616;23.350;2023-11-21T06:16:51;16.48;;;7.10;;
6898;SDS011;3488;42.616;23.350;2023-11-21T06:19:19;15.73;;;7.70;;
6898;SDS011;3488;42.616;23.350;2023-11-21T06:21:46;19.92;;;9.98;;
6898;SDS011;3488;42.616;23.350;2023-11-21T06:24:14;16.45;;;9.38;;
6898;SDS011;3488;42.616;23.350;2023-11-21T06:26:47;18.65;;;8.85;;
6898;SDS011;3488;42.616;23.350;2023-11-21T06:29:14;9.25;;;5.72;;
6898;SDS011;3488;42.616;23.350;2023-11-21T06:31:42;16.85;;;7.75;;
6898;SDS011;3488;42.616;23.350;2023-11-21T06:34:09;13.02;;;6.47;;
6898;SDS011;3488;42.616;23.350;2023-11-21T06:36:36;9.10;;;7.15;;
6898;SDS011;3488;42.616;23.350;2023-11-21T06:39:03;12.32;;;8.15;;
6898;SDS011;3488;42.616;23.350;2023-11-21T06:41:34;20.52;;;8.85;;
6898;SDS011;3488;42.616;23.350;2023-11-21T06:44:04;24.75;;;11.90;;
6898;SDS011;3488;42.616;23.350;2023-11-21T06:46:31;28.10;;;13.02;;
6898;SDS011;3488;42.616;23.350;2023-11-21T06:48:58;15.77;;;11.18;;
6898;SDS011;3488;42.616;23.350;2023-11-21T06:51:25;18.45;;;12.60;;
6898;SDS011;3488;42.616;23.350;2023-11-21T06:53:53;19.75;;;13.60;;
6898;SDS011;3488;42.616;23.350;2023-11-21T06:56:20;25.50;;;13.75;;
6898;SDS011;3488;42.616;23.350;2023-11-21T06:58:49;28.27;;;14.18;;
6898;SDS011;3488;42.616;23.350;2023-11-21T07:01:19;30.10;;;13.40;;
6898;SDS011;3488;42.616;23.350;2023-11-21T07:03:46;31.52;;;14.25;;
6898;SDS011;3488;42.616;23.350;2023-11-21T07:06:13;24.70;;;13.38;;
6898;SDS011;3488;42.616;23.350;2023-11-21T07:08:40;21.58;;;12.88;;
6898;SDS011;3488;42.616;23.350;2023-11-21T07:11:08;24.92;;;14.15;;
6898;SDS011;3488;42.616;23.350;2023-11-21T07:13:35;25.00;;;14.30;;
6898;SDS011;3488;42.616;23.350;2023-11-21T07:16:03;26.85;;;15.20;;
6898;SDS011;3488;42.616;23.350;2023-11-21T07:18:31;23.75;;;14.30;;
6898;SDS011;3488;42.616;23.350;2023-11-21T07:20:59;23.35;;;14.13;;
6898;SDS011;3488;42.616;23.350;2023-11-21T07:23:27;35.30;;;14.57;;
6898;SDS011;3488;42.616;23.350;2023-11-21T07:25:54;26.30;;;14.77;;
6898;SDS011;3488;42.616;23.350;2023-11-21T07:28:21;20.00;;;13.82;;
6898;SDS011;3488;42.616;23.350;2023-11-21T07:30:48;24.92;;;13.85;;
6898;SDS011;3488;42.616;23.350;2023-11-21T07:33:17;21.90;;;14.70;;
6898;SDS011;3488;42.616;23.350;2023-11-21T07:35:44;23.13;;;14.88;;
6898;SDS011;3488;42.616;23.350;2023-11-21T07:38:11;27.50;;;14.93;;
6898;SDS011;3488;42.616;23.350;2023-11-21T07:40:38;23.52;;;14.27;;
6898;SDS011;3488;42.616;23.350;2023-11-21T07:43:05;19.13;;;13.55;;
6898;SDS011;3488;42.616;23.350;2023-11-21T07:45:33;31.35;;;14.18;;
6898;SDS011;3488;42.616;23.350;2023-11-21T07:48:01;17.63;;;13.95;;
6898;SDS011;3488;42.616;23.350;2023-11-21T07:50:31;23.48;;;15.13;;
6898;SDS011;3488;42.616;23.350;2023-11-21T07:52:59;25.45;;;14.65;;
6898;SDS011;3488;42.616;23.350;2023-11-21T07:55:26;30.90;;;15.60;;
6898;SDS011;3488;42.616;23.350;2023-11-21T07:57:57;22.42;;;15.05;;
6898;SDS011;3488;42.616;23.350;2023-11-21T08:00:24;28.02;;;15.43;;
6898;SDS011;3488;42.616;23.350;2023-11-21T08:02:55;26.55;;;14.68;;
6898;SDS011;3488;42.616;23.350;2023-11-21T08:05:22;23.08;;;14.73;;
6898;SDS011;3488;42.616;23.350;2023-11-21T08:07:51;19.95;;;14.32;;
6898;SDS011;3488;42.616;23.350;2023-11-21T08:10:18;24.05;;;15.18;;
6898;SDS011;3488;42.616;23.350;2023-11-21T08:12:46;25.10;;;14.20;;
6898;SDS011;3488;42.616;23.350;2023-11-21T08:15:14;25.52;;;13.85;;
6898;SDS011;3488;42.616;23.350;2023-11-21T08:17:41;32.05;;;14.80;;
6898;SDS011;3488;42.616;23.350;2023-11-21T08:20:10;22.17;;;13.93;;
6898;SDS011;3488;42.616;23.350;2023-11-21T08:22:37;27.67;;;14.20;;
6898;SDS011;3488;42.616;23.350;2023-11-21T08:25:08;24.98;;;13.73;;
6898;SDS011;3488;42.616;23.350;2023-11-21T08:27:36;24.63;;;14.70;;
6898;SDS011;3488;42.616;23.350;2023-11-21T08:30:04;23.90;;;13.90;;
6898;SDS011;3488;42.616;23.350;2023-11-21T08:32:32;20.00;;;13.77;;
6898;SDS011;3488;42.616;23.350;2023-11-21T08:35:01;22.90;;;13.50;;
6898;SDS011;3488;42.616;23.350;2023-11-21T08:37:28;17.27;;;12.13;;
6898;SDS011;3488;42.616;23.350;2023-11-21T08:39:57;24.00;;;11.80;;
6898;SDS011;3488;42.616;23.350;2023-11-21T08:42:27;27.92;;;13.68;;
6898;SDS011;3488;42.616;23.350;2023-11-21T08:44:56;22.42;;;10.95;;
6898;SDS011;3488;42.616;23.350;2023-11-21T08:47:24;23.35;;;11.30;;
6898;SDS011;3488;42.616;23.350;2023-11-21T08:49:51;19.20;;;12.07;;
6898;SDS011;3488;42.616;23.350;2023-11-21T08:52:19;22.73;;;11.93;;
6898;SDS011;3488;42.616;23.350;2023-11-21T08:54:49;20.88;;;12.82;;
6898;SDS011;3488;42.616;23.350;2023-11-21T08:57:21;30.15;;;14.65;;
6898;SDS011;3488;42.616;23.350;2023-11-21T08:59:50;23.15;;;15.90;;
6898;SDS011;3488;42.616;23.350;2023-11-21T09:02:20;26.85;;;15.43;;
6898;SDS011;3488;42.616;23.350;2023-11-21T09:04:48;25.38;;;14.93;;
6898;SDS011;3488;42.616;23.350;2023-11-21T09:07:16;27.45;;;16.40;;
6898;SDS011;3488;42.616;23.350;2023-11-21T09:09:45;30.75;;;17.60;;
6898;SDS011;3488;42.616;23.350;2023-11-21T09:12:12;27.88;;;14.95;;
6898;SDS011;3488;42.616;23.350;2023-11-21T09:14:40;26.85;;;14.10;;
6898;SDS011;3488;42.616;23.350;2023-11-21T09:17:09;25.15;;;13.32;;
6898;SDS011;3488;42.616;23.350;2023-11-21T09:19:37;20.60;;;13.05;;
6898;SDS011;3488;42.616;23.350;2023-11-21T09:22:04;20.65;;;12.18;;
6898;SDS011;3488;42.616;23.350;2023-11-21T09:24:32;18.23;;;11.25;;
6898;SDS011;3488;42.616;23.350;2023-11-21T09:26:59;17.92;;;9.52;;
6898;SDS011;3488;42.616;23.350;2023-11-21T09:29:27;17.05;;;10.15;;
6898;SDS011;3488;42.616;23.350;2023-11-21T09:31:55;16.73;;;10.40;;
6898;SDS011;3488;42.616;23.350;2023-11-21T09:34:26;16.67;;;11.32;;
6898;SDS011;3488;42.616;23.350;2023-11-21T09:36:53;16.10;;;9.45;;
6898;SDS011;3488;42.616;23.350;2023-11-21T09:39:21;12.93;;;9.38;;
6898;SDS011;3488;42.616;23.350;2023-11-21T09:41:50;19.05;;;10.82;;
6898;SDS011;3488;42.616;23.350;2023-11-21T09:44:22;16.25;;;10.00;;
6898;SDS011;3488;42.616;23.350;2023-11-21T09:47:00;19.83;;;11.63;;
6898;SDS011;3488;42.616;23.350;2023-11-21T09:49:30;19.98;;;12.05;;
6898;SDS011;3488;42.616;23.350;2023-11-21T09:52:01;14.68;;;11.10;;
6898;SDS011;3488;42.616;23.350;2023-11-21T09:54:30;15.38;;;11.07;;
6898;SDS011;3488;42.616;23.350;2023-11-21T09:56:59;21.65;;;12.05;;
6898;SDS011;3488;42.616;23.350;2023-11-21T09:59:27;21.33;;;15.35;;
6898;SDS011;3488;42.616;23.350;2023-11-21T10:01:57;23.42;;;14.23;;
6898;SDS011;3488;42.616;23.350;2023-11-21T10:04:25;22.02;;;14.07;;
6898;SDS011;3488;42.616;23.350;2023-11-21T10:06:54;18.33;;;11.93;;
6898;SDS011;3488;42.616;23.350;2023-11-21T10:09:22;15.50;;;11.60;;
6898;SDS011;3488;42.616;23.350;2023-11-21T10:11:52;18.85;;;11.73;;
6898;SDS011;3488;42.616;23.350;2023-11-21T10:14:22;18.02;;;12.05;;
6898;SDS011;3488;42.616;23.350;2023-11-21T10:16:54;18.13;;;12.48;;
6898;SDS011;3488;42.616;23.350;2023-11-21T10:19:23;19.55;;;13.70;;
6898;SDS011;3488;42.616;23.350;2023-11-21T10:21:53;18.27;;;12.32;;
6898;SDS011;3488;42.616;23.350;2023-11-21T10:24:23;20.20;;;13.32;;
6898;SDS011;3488;42.616;23.350;2023-11-21T10:26:50;16.63;;;12.57;;
6898;SDS011;3488;42.616;23.350;2023-11-21T10:29:18;19.30;;;12.27;;
6898;SDS011;3488;42.616;23.350;2023-11-21T10:31:48;23.23;;;12.30;;
6898;SDS011;3488;42.616;23.350;2023-11-21T10:34:16;17.63;;;12.75;;
6898;SDS011;3488;42.616;23.350;2023-11-21T10:36:45;18.05;;;11.63;;
6898;SDS011;3488;42.616;23.350;2023-11-21T10:39:16;17.17;;;11.27;;
6898;SDS011;3488;42.616;23.350;2023-11-21T10:41:44;13.13;;;10.90;;
6898;SDS011;3488;42.616;23.350;2023-11-21T10:44:13;17.27;;;11.10;;
6898;SDS011;3488;42.616;23.350;2023-11-21T10:46:46;17.02;;;11.55;;
6898;SDS011;3488;42.616;23.350;2023-11-21T10:49:16;18.73;;;12.07;;
6898;SDS011;3488;42.616;23.350;2023-11-21T10:51:44;20.83;;;11.48;;
6898;SDS011;3488;42.616;23.350;2023-11-21T10:54:11;12.88;;;10.55;;
6898;SDS011;3488;42.616;23.350;2023-11-21T10:56:40;16.77;;;11.27;;
6898;SDS011;3488;42.616;23.350;2023-11-21T10:59:09;18.17;;;12.00;;
6898;SDS011;3488;42.616;23.350;2023-11-21T11:01:40;17.33;;;11.77;;
6898;SDS011;3488;42.616;23.350;2023-11-21T11:04:09;16.27;;;10.15;;
6898;SDS011;3488;42.616;23.350;2023-11-21T11:06:42;20.25;;;9.60;;
6898;SDS011;3488;42.616;23.350;2023-11-21T11:09:10;13.93;;;8.75;;
6898;SDS011;3488;42.616;23.350;2023-11-21T11:11:41;16.63;;;8.43;;
6898;SDS011;3488;42.616;23.350;2023-11-21T11:14:10;10.38;;;7.88;;
6898;SDS011;3488;42.616;23.350;2023-11-21T11:16:39;11.82;;;8.63;;
6898;SDS011;3488;42.616;23.350;2023-11-21T11:19:08;17.48;;;8.43;;
6898;SDS011;3488;42.616;23.350;2023-11-21T11:21:42;9.65;;;8.02;;
6898;SDS011;3488;42.616;23.350;2023-11-21T11:24:24;14.07;;;8.73;;
6898;SDS011;3488;42.616;23.350;2023-11-21T11:27:06;14.50;;;9.13;;
6898;SDS011;3488;42.616;23.350;2023-11-21T11:29:43;18.92;;;9.40;;
6898;SDS011;3488;42.616;23.350;2023-11-21T11:32:23;17.33;;;10.30;;
6898;SDS011;3488;42.616;23.350;2023-11-21T11:35:01;22.55;;;10.57;;
6898;SDS011;3488;42.616;23.350;2023-11-21T11:37:40;19.77;;;10.35;;
6898;SDS011;3488;42.616;23.350;2023-11-21T11:40:08;15.63;;;11.02;;
6898;SDS011;3488;42.616;23.350;2023-11-21T11:42:38;15.70;;;10.77;;
6898;SDS011;3488;42.616;23.350;2023-11-21T11:45:17;13.70;;;10.63;;
6898;SDS011;3488;42.616;23.350;2023-11-21T11:47:46;18.70;;;10.85;;
6898;SDS011;3488;42.616;23.350;2023-11-21T11:50:14;21.17;;;12.25;;
6898;SDS011;3488;42.616;23.350;2023-11-21T11:52:43;16.23;;;11.90;;
6898;SDS011;3488;42.616;23.350;2023-11-21T11:55:11;23.15;;;12.60;;
6898;SDS011;3488;42.616;23.350;2023-11-21T11:57:41;20.98;;;12.82;;
6898;SDS011;3488;42.616;23.350;2023-11-21T12:00:10;16.63;;;11.50;;
6898;SDS011;3488;42.616;23.350;2023-11-21T12:02:41;21.88;;;11.77;;
6898;SDS011;3488;42.616;23.350;2023-11-21T12:05:19;14.75;;;11.55;;
6898;SDS011;3488;42.616;23.350;2023-11-21T12:07:48;24.75;;;11.60;;
6898;SDS011;3488;42.616;23.350;2023-11-21T12:10:19;16.80;;;10.23;;
6898;SDS011;3488;42.616;23.350;2023-11-21T12:12:51;14.82;;;10.18;;
6898;SDS011;3488;42.616;23.350;2023-11-21T12:15:21;21.73;;;13.63;;
6898;SDS011;3488;42.616;23.350;2023-11-21T12:17:49;33.50;;;14.02;;
6898;SDS011;3488;42.616;23.350;2023-11-21T12:20:18;26.88;;;16.45;;
6898;SDS011;3488;42.616;23.350;2023-11-21T12:22:46;22.42;;;15.13;;
6898;SDS011;3488;42.616;23.350;2023-11-21T12:25:15;27.13;;;16.23;;
6898;SDS011;3488;42.616;23.350;2023-11-21T12:27:44;24.98;;;16.50;;
6898;SDS011;3488;42.616;23.350;2023-11-21T12:30:14;20.65;;;15.40;;
6898;SDS011;3488;42.616;23.350;2023-11-21T12:32:42;27.65;;;14.93;;
6898;SDS011;3488;42.616;23.350;2023-11-21T12:35:11;26.05;;;15.98;;
6898;SDS011;3488;42.616;23.350;2023-11-21T12:37:39;34.75;;;15.82;;
6898;SDS011;3488;42.616;23.350;2023-11-21T12:40:08;26.33;;;15.40;;
6898;SDS011;3488;42.616;23.350;2023-11-21T12:42:38;27.80;;;16.40;;
6898;SDS011;3488;42.616;23.350;2023-11-21T12:45:09;30.50;;;16.48;;
6898;SDS011;3488;42.616;23.350;2023-11-21T12:47:47;30.17;;;17.13;;
6898;SDS011;3488;42.616;23.350;2023-11-21T12:50:15;22.75;;;16.33;;
6898;SDS011;3488;42.616;23.350;2023-11-21T12:52:48;33.22;;;17.65;;
6898;SDS011;3488;42.616;23.350;2023-11-21T12:55:19;29.95;;;17.63;;
6898;SDS011;3488;42.616;23.350;2023-11-21T12:57:48;28.10;;;18.00;;
6898;SDS011;3488;42.616;23.350;2023-11-21T13:00:17;31.52;;;18.73;;
6898;SDS011;3488;42.616;23.350;2023-11-21T13:02:55;29.33;;;19.70;;
6898;SDS011;3488;42.616;23.350;2023-11-21T13:05:24;35.53;;;20.75;;
6898;SDS011;3488;42.616;23.350;2023-11-21T13:07:56;31.85;;;21.08;;
6898;SDS011;3488;42.616;23.350;2023-11-21T13:10:29;28.90;;;19.88;;
6898;SDS011;3488;42.616;23.350;2023-11-21T13:12:59;33.67;;;19.05;;
6898;SDS011;3488;42.616;23.350;2023-11-21T13:15:30;28.17;;;18.08;;
6898;SDS011;3488;42.616;23.350;2023-11-21T13:18:01;30.90;;;20.10;;
6898;SDS011;3488;42.616;23.350;2023-11-21T13:20:29;31.00;;;18.95;;
6898;SDS011;3488;42.616;23.350;2023-11-21T13:22:57;31.77;;;19.90;;
6898;SDS011;3488;42.616;23.350;2023-11-21T13:25:33;40.40;;;19.45;;
6898;SDS011;3488;42.616;23.350;2023-11-21T13:28:02;33.15;;;18.42;;
6898;SDS011;3488;42.616;23.350;2023-11-21T13:30:30;28.70;;;18.92;;
6898;SDS011;3488;42.616;23.350;2023-11-21T13:32:59;33.47;;;21.00;;
6898;SDS011;3488;42.616;23.350;2023-11-21T13:35:31;30.02;;;19.75;;
6898;SDS011;3488;42.616;23.350;2023-11-21T13:38:03;35.20;;;21.52;;
6898;SDS011;3488;42.616;23.350;2023-11-21T13:40:32;32.08;;;19.50;;
6898;SDS011;3488;42.616;23.350;2023-11-21T13:43:07;33.58;;;19.83;;
6898;SDS011;3488;42.616;23.350;2023-11-21T13:45:35;43.40;;;19.63;;
6898;SDS011;3488;42.616;23.350;2023-11-21T13:48:06;30.20;;;20.73;;
6898;SDS011;3488;42.616;23.350;2023-11-21T13:50:35;27.70;;;18.80;;
6898;SDS011;3488;42.616;23.350;2023-11-21T13:53:04;33.80;;;20.65;;
6898;SDS011;3488;42.616;23.350;2023-11-21T13:55:43;32.15;;;19.88;;
6898;SDS011;3488;42.616;23.350;2023-11-21T13:58:10;31.42;;;18.27;;
6898;SDS011;3488;42.616;23.350;2023-11-21T14:00:43;35.72;;;20.55;;
6898;SDS011;3488;42.616;23.350;2023-11-21T14:03:13;27.75;;;18.48;;
6898;SDS011;3488;42.616;23.350;2023-11-21T14:05:45;32.65;;;18.73;;
6898;SDS011;3488;42.616;23.350;2023-11-21T14:08:16;29.42;;;19.20;;
6898;SDS011;3488;42.616;23.350;2023-11-21T14:10:45;30.73;;;18.40;;
6898;SDS011;3488;42.616;23.350;2023-11-21T14:13:20;29.75;;;19.33;;
6898;SDS011;3488;42.616;23.350;2023-11-21T14:15:48;33.92;;;19.90;;
6898;SDS011;3488;42.616;23.350;2023-11-21T14:18:22;28.35;;;18.80;;
6898;SDS011;3488;42.616;23.350;2023-11-21T14:20:55;38.28;;;19.80;;
6898;SDS011;3488;42.616;23.350;2023-11-21T14:23:22;34.10;;;19.15;;
6898;SDS011;3488;42.616;23.350;2023-11-21T14:25:49;34.85;;;19.45;;
6898;SDS011;3488;42.616;23.350;2023-11-21T14:28:17;32.20;;;19.15;;
6898;SDS011;3488;42.616;23.350;2023-11-21T14:30:45;36.25;;;20.25;;
6898;SDS011;3488;42.616;23.350;2023-11-21T14:33:12;29.73;;;19.15;;
6898;SDS011;3488;42.616;23.350;2023-11-21T14:35:43;31.95;;;21.55;;
6898;SDS011;3488;42.616;23.350;2023-11-21T14:38:10;38.60;;;22.00;;
6898;SDS011;3488;42.616;23.350;2023-11-21T14:40:40;43.20;;;23.27;;
6898;SDS011;3488;42.616;23.350;2023-11-21T14:43:08;32.60;;;21.63;;
6898;SDS011;3488;42.616;23.350;2023-11-21T14:45:35;33.50;;;23.33;;
6898;SDS011;3488;42.616;23.350;2023-11-21T14:48:02;30.35;;;20.30;;
6898;SDS011;3488;42.616;23.350;2023-11-21T14:50:37;29.75;;;20.58;;
6898;SDS011;3488;42.616;23.350;2023-11-21T14:53:15;26.45;;;19.17;;
6898;SDS011;3488;42.616;23.350;2023-11-21T14:55:42;33.70;;;20.80;;